createdAt,value
2023-05-01T00:01:06.893Z,5.78
2023-05-01T00:03:34.471Z,6.05
2023-05-01T00:06:05.297Z,5.82
2023-05-01T00:08:33.139Z,5.85
2023-05-01T00:11:12.444Z,5.28
2023-05-01T00:13:39.980Z,5.38
2023-05-01T00:16:11.358Z,6.40
2023-05-01T00:18:39.323Z,6.30
2023-05-01T00:21:06.817Z,5.88
2023-05-01T00:23:34.156Z,5.45
2023-05-01T00:26:01.704Z,6.55
2023-05-01T00:28:29.218Z,5.60
2023-05-01T00:30:57.302Z,6.00
2023-05-01T00:33:24.738Z,5.72
2023-05-01T00:35:53.352Z,5.82
2023-05-01T00:38:20.890Z,5.60
2023-05-01T00:40:48.458Z,5.93
2023-05-01T00:43:15.946Z,6.68
2023-05-01T00:45:45.531Z,6.43
2023-05-01T00:48:13.328Z,6.13
2023-05-01T00:50:40.925Z,6.20
2023-05-01T00:53:08.359Z,6.75
2023-05-01T00:55:35.961Z,6.10
2023-05-01T00:58:03.865Z,6.78
2023-05-01T01:00:31.262Z,6.40
2023-05-01T01:02:58.824Z,6.15
2023-05-01T01:05:28.423Z,6.53
2023-05-01T01:08:10.793Z,6.38
2023-05-01T01:10:51.982Z,7.15
2023-05-01T01:13:54.306Z,6.32
2023-05-01T01:16:23.805Z,6.78
2023-05-01T01:19:25.906Z,7.00
2023-05-01T01:21:59.892Z,6.18
2023-05-01T01:24:58.742Z,7.03
2023-05-01T01:28:04.077Z,6.78
2023-05-01T01:31:05.363Z,6.03
2023-05-01T01:34:02.585Z,6.65
2023-05-01T01:36:45.348Z,6.70
2023-05-01T01:39:31.377Z,6.60
2023-05-01T01:42:10.967Z,7.20
2023-05-01T01:44:48.849Z,7.72
2023-05-01T01:47:18.619Z,7.25
2023-05-01T01:50:06.744Z,6.93
2023-05-01T01:55:54.736Z,6.75
2023-05-01T01:58:31.675Z,6.60
2023-05-01T02:00:59.905Z,6.80
2023-05-01T02:03:36.115Z,7.70
2023-05-01T02:06:18.679Z,6.97
2023-05-01T02:08:48.018Z,6.65
2023-05-01T02:11:18.156Z,7.10
2023-05-01T02:13:46.511Z,6.75
2023-05-01T02:16:14.610Z,6.72
2023-05-01T02:18:44.910Z,6.57
2023-05-01T02:21:22.231Z,6.28
2023-05-01T02:23:50.460Z,6.80
2023-05-01T02:26:19.193Z,6.93
2023-05-01T02:28:46.821Z,7.00
2023-05-01T02:31:14.334Z,7.05
2023-05-01T02:33:41.875Z,7.00
2023-05-01T02:36:09.407Z,7.20
2023-05-01T02:38:37.188Z,7.18
2023-05-01T02:41:04.800Z,7.03
2023-05-01T02:43:33.896Z,7.10
2023-05-01T02:46:02.597Z,7.20
2023-05-01T02:48:32.987Z,7.40
2023-05-01T02:51:01.645Z,7.22
2023-05-01T02:53:29.062Z,6.50
2023-05-01T02:55:57.759Z,6.80
2023-05-01T02:58:28.589Z,7.03
2023-05-01T03:00:57.161Z,6.75
2023-05-01T03:03:33.221Z,6.68
2023-05-01T03:06:03.161Z,6.68
2023-05-01T03:08:30.639Z,6.95
2023-05-01T03:11:00.610Z,6.90
2023-05-01T03:13:30.274Z,7.10
2023-05-01T03:15:58.118Z,6.80
2023-05-01T03:18:25.799Z,6.35
2023-05-01T03:21:03.668Z,6.60
2023-05-01T03:23:41.974Z,6.32
2023-05-01T03:26:13.043Z,6.97
2023-05-01T03:28:43.219Z,6.47
2023-05-01T03:31:15.442Z,6.00
2023-05-01T03:33:45.340Z,5.97
2023-05-01T03:36:14.339Z,6.18
2023-05-01T03:38:42.220Z,6.18
2023-05-01T03:41:09.945Z,6.03
2023-05-01T03:43:37.473Z,5.53
2023-05-01T03:46:04.931Z,5.60
2023-05-01T03:48:32.414Z,6.07
2023-05-01T03:50:59.831Z,6.88
2023-05-01T03:53:27.240Z,6.70
2023-05-01T03:55:54.612Z,6.00
2023-05-01T03:58:22.350Z,6.30
2023-05-01T04:00:50.872Z,6.18
2023-05-01T04:03:18.815Z,5.97
2023-05-01T04:05:46.547Z,5.88
2023-05-01T04:08:14.096Z,6.93
2023-05-01T04:10:41.564Z,6.35
2023-05-01T04:13:09.090Z,6.38
2023-05-01T04:15:43.310Z,6.65
2023-05-01T04:18:16.520Z,6.90
2023-05-01T04:20:43.989Z,6.57
2023-05-01T04:23:12.776Z,6.30
2023-05-01T04:25:40.182Z,6.30
2023-05-01T04:28:07.753Z,6.50
2023-05-01T04:30:35.493Z,6.82
2023-05-01T04:33:03.985Z,6.88
2023-05-01T04:35:31.500Z,6.60
2023-05-01T04:37:58.885Z,6.35
2023-05-01T04:40:29.604Z,5.97
2023-05-01T04:43:04.436Z,5.88
2023-05-01T04:51:01.070Z,5.95
2023-05-01T04:53:44.723Z,6.57
2023-05-01T04:56:14.714Z,6.60
2023-05-01T04:58:53.136Z,6.70
2023-05-01T05:01:21.155Z,6.70
2023-05-01T05:03:57.625Z,6.60
2023-05-01T05:06:37.709Z,7.43
2023-05-01T05:09:20.550Z,6.63
2023-05-01T05:12:21.321Z,6.78
2023-05-01T05:14:58.405Z,6.82
2023-05-01T05:17:43.014Z,7.43
2023-05-01T05:22:56.175Z,6.57
2023-05-01T05:25:25.510Z,7.18
2023-05-01T05:30:58.838Z,6.78
2023-05-01T05:33:26.249Z,6.90
2023-05-01T05:35:53.849Z,6.50
2023-05-01T05:38:22.730Z,7.28
2023-05-01T05:40:50.153Z,6.32
2023-05-01T05:43:19.981Z,7.43
2023-05-01T05:45:51.818Z,6.47
2023-05-01T05:48:28.564Z,6.65
2023-05-01T05:51:02.600Z,6.03
2023-05-01T05:54:01.174Z,7.07
2023-05-01T05:56:31.561Z,6.70
2023-05-01T05:59:11.528Z,6.35
2023-05-01T06:01:50.206Z,6.63
2023-05-01T06:04:21.734Z,6.68
2023-05-01T06:10:02.926Z,6.28
2023-05-01T06:12:37.483Z,6.60
2023-05-01T06:15:12.280Z,6.43
2023-05-01T06:17:53.551Z,6.38
2023-05-01T06:23:45.861Z,6.20
2023-05-01T06:29:11.457Z,6.50
2023-05-01T06:31:59.916Z,6.60
2023-05-01T06:34:29.944Z,5.97
2023-05-01T06:40:13.335Z,6.32
2023-05-01T06:42:43.685Z,6.60
2023-05-01T06:45:23.338Z,6.32
2023-05-01T06:48:30.689Z,6.57
2023-05-01T06:51:28.638Z,6.28
2023-05-01T06:54:05.004Z,6.88
2023-05-01T06:56:41.205Z,6.75
2023-05-01T06:59:26.821Z,6.93
2023-05-01T07:02:15.487Z,6.32
2023-05-01T07:04:45.490Z,6.72
2023-05-01T07:07:19.120Z,6.38
2023-05-01T07:09:48.268Z,6.95
2023-05-01T07:12:32.652Z,6.32
2023-05-01T07:15:00.236Z,6.65
2023-05-01T07:17:29.055Z,6.60
2023-05-01T07:19:56.747Z,7.38
2023-05-01T07:22:24.367Z,7.28
2023-05-01T07:24:52.136Z,6.90
2023-05-01T07:27:20.544Z,6.85
2023-05-01T07:29:47.912Z,7.20
2023-05-01T07:32:16.021Z,6.78
2023-05-01T07:34:44.682Z,6.88
2023-05-01T07:39:54.577Z,7.10
2023-05-01T07:42:22.152Z,7.50
2023-05-01T07:44:54.132Z,7.72
2023-05-01T07:50:29.721Z,6.97
2023-05-01T07:52:58.525Z,7.88
2023-05-01T07:55:30.448Z,7.45
2023-05-01T07:58:11.254Z,7.10
2023-05-01T08:00:41.218Z,7.05
2023-05-01T08:03:30.109Z,7.35
2023-05-01T08:19:36.546Z,6.85
2023-05-01T08:22:13.931Z,7.63
2023-05-01T08:24:43.574Z,6.72
2023-05-01T08:27:43.550Z,8.30
2023-05-01T08:30:29.030Z,7.97
2023-05-01T08:38:15.608Z,7.25
2023-05-01T08:43:58.798Z,7.60
2023-05-01T08:46:52.988Z,7.88
2023-05-01T08:49:20.935Z,9.07
2023-05-01T08:51:50.024Z,8.20
2023-05-01T08:54:19.548Z,7.45
2023-05-01T08:56:52.662Z,8.63
2023-05-01T08:59:21.090Z,8.88
2023-05-01T09:01:48.692Z,8.48
2023-05-01T09:04:17.515Z,9.13
2023-05-01T09:06:45.426Z,8.85
2023-05-01T09:09:14.552Z,8.95
2023-05-01T09:11:49.304Z,9.23
2023-05-01T09:14:24.026Z,9.45
2023-05-01T09:16:51.820Z,9.38
2023-05-01T09:19:19.739Z,8.80
2023-05-01T09:21:48.657Z,8.82
2023-05-01T09:24:22.541Z,8.70
2023-05-01T09:26:56.692Z,8.65
2023-05-01T09:29:48.140Z,9.15
2023-05-01T09:32:24.821Z,8.60
2023-05-01T09:35:17.186Z,8.95
2023-05-01T09:40:59.996Z,8.93
2023-05-01T09:43:36.873Z,9.10
2023-05-01T09:49:08.791Z,9.02
2023-05-01T09:51:37.055Z,8.90
2023-05-01T09:54:06.688Z,9.30
2023-05-01T09:56:34.729Z,9.57
2023-05-01T09:59:20.464Z,10.48
2023-05-01T10:01:52.935Z,9.75
2023-05-01T10:04:31.250Z,9.85
2023-05-01T10:07:20.705Z,10.07
2023-05-01T10:09:49.422Z,9.55
2023-05-01T10:12:25.289Z,9.02
2023-05-01T10:14:54.064Z,8.57
2023-05-01T10:17:22.539Z,8.35
2023-05-01T10:19:53.471Z,7.82
2023-05-01T10:22:22.548Z,8.32
2023-05-01T10:24:50.013Z,8.27
2023-05-01T10:27:20.778Z,7.65
2023-05-01T10:29:50.133Z,8.90
2023-05-01T10:32:19.579Z,8.20
2023-05-01T10:35:07.443Z,8.32
2023-05-01T10:38:15.883Z,8.38
2023-05-01T10:40:57.950Z,8.13
2023-05-01T10:43:32.084Z,8.57
2023-05-01T10:46:08.831Z,8.73
2023-05-01T10:48:42.553Z,8.13
2023-05-01T10:51:13.261Z,8.80
2023-05-01T10:53:46.908Z,7.63
2023-05-01T10:56:32.814Z,7.60
2023-05-01T10:59:04.662Z,8.10
2023-05-01T11:01:38.173Z,8.40
2023-05-01T11:04:10.626Z,8.32
2023-05-01T11:06:38.445Z,8.38
2023-05-01T11:09:46.997Z,7.97
2023-05-01T11:12:35.619Z,8.95
2023-05-01T11:15:08.430Z,9.40
2023-05-01T11:17:45.067Z,9.90
2023-05-01T11:20:14.485Z,9.93
2023-05-01T11:22:50.366Z,9.55
2023-05-01T11:25:22.441Z,9.35
2023-05-01T11:28:03.781Z,9.13
2023-05-01T11:30:40.391Z,9.48
2023-05-01T11:33:10.734Z,10.25
2023-05-01T11:35:38.708Z,10.15
2023-05-01T11:38:06.414Z,10.48
2023-05-01T11:40:35.753Z,11.15
2023-05-01T11:43:07.652Z,10.15
2023-05-01T11:45:38.509Z,11.40
2023-05-01T11:48:09.965Z,11.02
2023-05-01T11:50:38.919Z,10.32
2023-05-01T11:53:12.926Z,11.55
2023-05-01T11:55:40.520Z,11.70
2023-05-01T11:58:09.018Z,11.50
2023-05-01T12:00:41.832Z,11.40
2023-05-01T12:05:42.819Z,12.00
2023-05-01T12:08:23.448Z,12.40
2023-05-01T12:10:53.580Z,12.48
2023-05-01T12:13:21.452Z,11.05
2023-05-01T12:15:53.730Z,11.55
2023-05-01T12:18:21.643Z,12.20
2023-05-01T12:20:54.342Z,12.63
2023-05-01T12:23:37.477Z,11.23
2023-05-01T12:26:17.696Z,10.52
2023-05-01T12:28:58.492Z,9.95
2023-05-01T12:31:26.857Z,10.70
2023-05-01T12:34:07.611Z,10.30
2023-05-01T12:36:36.246Z,10.27
2023-05-01T12:39:09.139Z,10.07
2023-05-01T12:41:41.646Z,9.63
2023-05-01T12:44:23.143Z,10.07
2023-05-01T12:47:08.060Z,9.55
2023-05-01T12:49:37.208Z,8.50
2023-05-01T12:52:07.491Z,9.20
2023-05-01T12:54:39.972Z,8.40
2023-05-01T12:57:15.128Z,8.75
2023-05-01T12:59:45.417Z,8.27
2023-05-01T13:02:17.710Z,7.78
2023-05-01T13:04:46.403Z,5.78
2023-05-01T13:07:18.711Z,6.53
2023-05-01T13:10:02.641Z,6.55
2023-05-01T13:12:31.183Z,6.07
2023-05-01T13:14:59.491Z,6.13
2023-05-01T13:17:33.757Z,6.32
2023-05-01T13:20:04.067Z,6.40
2023-05-01T13:22:38.765Z,5.57
2023-05-01T13:25:25.137Z,5.63
2023-05-01T13:27:53.359Z,5.95
2023-05-01T13:30:31.404Z,6.45
2023-05-01T13:32:58.780Z,5.93
2023-05-01T13:35:28.660Z,5.82
2023-05-01T13:37:56.016Z,6.05
2023-05-01T13:40:26.263Z,6.10
2023-05-01T13:42:56.664Z,6.35
2023-05-01T13:45:24.424Z,6.47
2023-05-01T13:47:52.141Z,6.88
2023-05-01T13:50:19.728Z,6.72
2023-05-01T13:52:47.607Z,7.03
2023-05-01T13:55:15.764Z,6.63
2023-05-01T13:57:43.473Z,7.00
2023-05-01T14:00:19.362Z,7.07
2023-05-01T14:02:53.485Z,7.32
2023-05-01T14:05:28.518Z,7.13
2023-05-01T14:07:58.414Z,7.20
2023-05-01T14:10:28.195Z,7.57
2023-05-01T14:12:59.763Z,7.32
2023-05-01T14:15:28.853Z,7.80
2023-05-01T14:17:56.492Z,7.80
2023-05-01T14:20:26.541Z,8.32
2023-05-01T14:22:53.845Z,8.20
2023-05-01T14:25:34.135Z,7.80
2023-05-01T14:28:05.143Z,8.18
2023-05-01T14:30:34.631Z,7.55
2023-05-01T14:33:03.671Z,7.30
2023-05-01T14:35:31.260Z,6.68
2023-05-01T14:38:12.848Z,6.95
2023-05-01T14:40:44.608Z,7.57
2023-05-01T14:43:15.045Z,7.55
2023-05-01T14:45:43.637Z,7.85
2023-05-01T14:48:23.151Z,7.75
2023-05-01T14:50:51.154Z,7.40
2023-05-01T14:53:21.340Z,7.55
2023-05-01T14:55:51.577Z,7.85
2023-05-01T14:58:18.880Z,7.00
2023-05-01T15:00:46.480Z,7.55
2023-05-01T15:03:14.184Z,7.00
2023-05-01T15:05:41.994Z,7.13
2023-05-01T15:08:10.126Z,7.60
2023-05-01T15:10:38.739Z,7.38
2023-05-01T15:13:06.716Z,7.85
2023-05-01T15:15:34.199Z,7.05
2023-05-01T15:18:04.151Z,7.50
2023-05-01T15:20:32.019Z,7.55
2023-05-01T15:22:59.379Z,7.20
2023-05-01T15:25:26.892Z,7.50
2023-05-01T15:27:54.644Z,7.30
2023-05-01T15:30:22.137Z,7.47
2023-05-01T15:32:49.707Z,8.27
2023-05-01T15:35:17.829Z,8.32
2023-05-01T15:37:45.210Z,9.25
2023-05-01T15:40:12.881Z,9.45
2023-05-01T15:42:40.534Z,8.65
2023-05-01T15:45:08.522Z,10.05
2023-05-01T15:47:35.929Z,9.10
2023-05-01T15:50:03.778Z,9.48
2023-05-01T15:52:31.265Z,9.95
2023-05-01T15:54:59.088Z,10.43
2023-05-01T15:57:26.476Z,10.05
2023-05-01T15:59:56.014Z,10.63
2023-05-01T16:02:25.946Z,10.30
2023-05-01T16:04:54.156Z,10.70
2023-05-01T16:07:22.478Z,10.95
2023-05-01T16:09:52.890Z,11.45
2023-05-01T16:12:20.488Z,11.20
2023-05-01T16:14:49.088Z,11.07
2023-05-01T16:17:18.139Z,11.23
2023-05-01T16:19:45.779Z,10.95
2023-05-01T16:22:15.408Z,10.85
2023-05-01T16:24:42.985Z,11.40
2023-05-01T16:27:13.632Z,11.45
2023-05-01T16:29:41.014Z,11.48
2023-05-01T16:32:11.475Z,11.65
2023-05-01T16:34:40.387Z,12.40
2023-05-01T16:37:08.030Z,12.77
2023-05-01T16:39:38.638Z,12.02
2023-05-01T16:42:06.329Z,12.13
2023-05-01T16:44:36.744Z,12.32
2023-05-01T16:47:05.177Z,12.23
2023-05-01T16:49:32.634Z,12.45
2023-05-01T16:52:04.255Z,13.43
2023-05-01T16:54:36.248Z,13.53
2023-05-01T16:57:05.311Z,14.63
2023-05-01T16:59:32.832Z,14.25
2023-05-01T17:02:02.785Z,14.38
2023-05-01T17:04:30.380Z,14.70
2023-05-01T17:07:01.020Z,15.85
2023-05-01T17:09:32.371Z,15.40
2023-05-01T17:12:02.331Z,15.98
2023-05-01T17:14:34.601Z,15.55
2023-05-01T17:17:02.444Z,16.17
2023-05-01T17:19:30.288Z,15.65
2023-05-01T17:22:09.709Z,16.35
2023-05-01T17:24:39.661Z,16.65
2023-05-01T17:27:08.862Z,16.50
2023-05-01T17:29:36.405Z,16.55
2023-05-01T17:32:04.659Z,16.65
2023-05-01T17:34:34.932Z,17.27
2023-05-01T17:37:02.250Z,17.40
2023-05-01T17:39:33.672Z,16.08
2023-05-01T17:42:04.571Z,15.68
2023-05-01T17:44:33.177Z,16.60
2023-05-01T17:47:01.160Z,18.10
2023-05-01T17:49:34.784Z,17.42
2023-05-01T17:52:02.664Z,18.20
2023-05-01T17:54:30.029Z,18.52
2023-05-01T17:56:58.248Z,18.85
2023-05-01T17:59:26.480Z,20.30
2023-05-01T18:01:53.879Z,21.55
2023-05-01T18:04:21.460Z,21.20
2023-05-01T18:06:48.930Z,21.77
2023-05-01T18:09:16.471Z,21.17
2023-05-01T18:11:44.060Z,22.10
2023-05-01T18:14:13.011Z,23.30
2023-05-01T18:16:40.417Z,23.65
2023-05-01T18:19:10.588Z,25.33
2023-05-01T18:21:38.046Z,24.92
2023-05-01T18:24:09.649Z,24.38
2023-05-01T18:26:45.458Z,26.65
2023-05-01T18:29:17.007Z,27.65
2023-05-01T18:31:53.369Z,28.08
2023-05-01T18:34:23.235Z,27.00
2023-05-01T18:36:55.934Z,27.45
2023-05-01T18:39:36.845Z,29.83
2023-05-01T18:42:29.069Z,28.33
2023-05-01T18:45:19.514Z,28.80
2023-05-01T18:47:48.219Z,28.77
2023-05-01T18:50:22.075Z,29.50
2023-05-01T18:52:51.504Z,29.48
2023-05-01T18:55:19.008Z,29.73
2023-05-01T18:57:49.221Z,29.55
2023-05-01T19:00:17.721Z,31.45
2023-05-01T19:02:51.466Z,29.17
2023-05-01T19:05:19.837Z,29.65
2023-05-01T19:07:50.599Z,27.95
2023-05-01T19:10:18.679Z,26.52
2023-05-01T19:12:46.681Z,25.10
2023-05-01T19:15:14.782Z,25.08
2023-05-01T19:17:49.743Z,24.92
2023-05-01T19:20:26.786Z,25.55
2023-05-01T19:23:07.541Z,26.17
2023-05-01T19:25:56.299Z,25.70
2023-05-01T19:28:28.936Z,28.45
2023-05-01T19:37:09.847Z,29.45
2023-05-01T19:39:43.534Z,29.48
2023-05-01T19:42:20.534Z,29.60
2023-05-01T19:47:30.719Z,31.80
2023-05-01T19:50:00.910Z,30.75
2023-05-01T19:52:31.051Z,32.20
2023-05-01T19:55:27.641Z,32.67
2023-05-01T19:58:00.694Z,32.75
2023-05-01T20:00:29.744Z,31.25
2023-05-01T20:05:42.783Z,32.90
2023-05-01T20:11:14.096Z,34.10
2023-05-01T20:13:55.663Z,33.25
2023-05-01T20:16:52.027Z,32.22
2023-05-01T20:19:30.329Z,31.63
2023-05-01T20:24:54.378Z,32.97
2023-05-01T20:27:29.692Z,33.45
2023-05-01T20:33:39.575Z,32.90
2023-05-01T20:36:08.198Z,34.00
2023-05-01T20:38:46.403Z,34.45
2023-05-01T20:41:14.422Z,33.67
2023-05-01T20:43:41.840Z,34.20
2023-05-01T20:46:09.370Z,35.80
2023-05-01T20:48:36.797Z,33.40
2023-05-01T20:51:04.201Z,32.20
2023-05-01T20:53:31.912Z,32.42
2023-05-01T20:56:00.097Z,31.83
2023-05-01T20:58:32.821Z,31.13
2023-05-01T21:01:02.803Z,30.23
2023-05-01T21:03:39.447Z,29.75
2023-05-01T21:06:07.705Z,27.73
2023-05-01T21:08:38.526Z,27.27
2023-05-01T21:11:10.831Z,26.77
2023-05-01T21:13:48.092Z,28.65
2023-05-01T21:16:25.841Z,25.38
2023-05-01T21:22:09.166Z,29.35
2023-05-01T21:24:46.232Z,30.02
2023-05-01T21:27:21.333Z,31.98
2023-05-01T21:30:29.434Z,30.75
2023-05-01T21:33:00.516Z,26.17
2023-05-01T21:36:02.034Z,22.13
2023-05-01T21:41:35.689Z,21.67
2023-05-01T21:44:09.857Z,23.20
2023-05-01T21:46:43.780Z,25.13
2023-05-01T21:49:18.693Z,24.67
2023-05-01T21:51:47.365Z,25.42
2023-05-01T21:54:33.045Z,27.45
2023-05-01T21:57:06.104Z,26.00
2023-05-01T21:59:57.278Z,26.95
2023-05-01T22:05:26.298Z,27.13
2023-05-01T22:08:06.963Z,26.98
2023-05-01T22:10:51.373Z,25.15
2023-05-01T22:24:09.522Z,26.00
2023-05-01T22:26:37.612Z,24.48
2023-05-01T22:29:08.006Z,25.52
2023-05-01T22:31:35.861Z,24.92
2023-05-01T22:34:03.336Z,24.80
2023-05-01T22:36:31.546Z,25.50
2023-05-01T22:38:58.972Z,23.92
2023-05-01T22:41:26.763Z,24.90
2023-05-01T22:43:54.195Z,23.17
2023-05-01T22:46:21.615Z,23.65
2023-05-01T22:48:48.977Z,24.05
2023-05-01T22:51:16.386Z,23.38
2023-05-01T22:53:43.874Z,23.70
2023-05-01T22:56:12.945Z,22.40
2023-05-01T22:58:45.050Z,21.98
2023-05-01T23:01:39.228Z,22.33
2023-05-01T23:07:26.721Z,22.33
2023-05-01T23:09:57.234Z,22.90
2023-05-01T23:12:28.109Z,22.25
2023-05-01T23:17:58.882Z,22.50
2023-05-01T23:20:40.062Z,21.55
2023-05-01T23:23:21.914Z,23.02
2023-05-01T23:25:51.780Z,23.98
2023-05-01T23:31:15.287Z,23.70
2023-05-01T23:37:14.448Z,23.60
2023-05-01T23:39:48.736Z,22.70
2023-05-01T23:42:21.461Z,23.63
2023-05-01T23:44:55.186Z,22.00
2023-05-01T23:47:34.664Z,20.85
2023-05-01T23:52:58.026Z,19.60
2023-05-01T23:55:28.177Z,16.45
